createdAt,value
2017-12-26T00:00:06.608Z,2.00
2017-12-26T00:02:33.165Z,2.30
2017-12-26T00:04:59.403Z,2.37
2017-12-26T00:07:26.032Z,2.20
2017-12-26T00:09:52.229Z,2.00
2017-12-26T00:12:18.482Z,1.80
2017-12-26T00:14:45.639Z,2.20
2017-12-26T00:17:11.852Z,2.17
2017-12-26T00:19:38.088Z,2.33
2017-12-26T00:22:04.334Z,2.23
2017-12-26T00:24:30.533Z,2.03
2017-12-26T00:26:56.737Z,1.83
2017-12-26T00:29:22.973Z,1.87
2017-12-26T00:31:49.165Z,2.37
2017-12-26T00:34:15.390Z,2.17
2017-12-26T00:36:41.630Z,1.97
2017-12-26T00:39:07.857Z,2.55
2017-12-26T00:41:34.051Z,1.90
2017-12-26T00:44:00.327Z,2.00
2017-12-26T00:46:26.513Z,2.17
2017-12-26T00:48:52.731Z,2.27
2017-12-26T00:51:18.984Z,1.80
2017-12-26T00:53:45.190Z,2.10
2017-12-26T00:56:11.384Z,1.77
2017-12-26T00:58:37.976Z,1.73
2017-12-26T01:01:04.178Z,2.00
2017-12-26T01:03:30.376Z,2.07
2017-12-26T01:05:56.908Z,1.90
2017-12-26T01:08:23.128Z,1.83
2017-12-26T01:10:49.319Z,1.93
2017-12-26T01:13:15.831Z,1.90
2017-12-26T01:15:42.003Z,1.73
2017-12-26T01:18:08.167Z,2.07
2017-12-26T01:20:34.441Z,1.77
2017-12-26T01:23:00.644Z,1.67
2017-12-26T01:25:26.843Z,2.00
2017-12-26T01:27:53.388Z,1.73
2017-12-26T01:30:19.604Z,2.12
2017-12-26T01:32:45.811Z,1.80
2017-12-26T01:35:12.376Z,1.85
2017-12-26T01:37:38.596Z,1.90
2017-12-26T01:40:04.805Z,1.87
2017-12-26T01:42:31.025Z,1.83
2017-12-26T01:44:57.216Z,1.87
2017-12-26T01:47:23.402Z,1.90
2017-12-26T01:49:49.982Z,1.80
2017-12-26T01:52:16.165Z,1.90
2017-12-26T01:54:42.360Z,1.80
2017-12-26T01:57:08.629Z,1.57
2017-12-26T01:59:34.865Z,1.45
2017-12-26T02:02:01.045Z,1.77
2017-12-26T02:04:27.660Z,1.90
2017-12-26T02:06:53.868Z,2.00
2017-12-26T02:09:20.076Z,1.90
2017-12-26T02:11:46.322Z,1.77
2017-12-26T02:14:12.533Z,2.00
2017-12-26T02:16:38.959Z,1.77
2017-12-26T02:19:05.509Z,1.60
2017-12-26T02:21:31.696Z,1.90
2017-12-26T02:23:57.952Z,2.30
2017-12-26T02:26:24.186Z,1.60
2017-12-26T02:28:50.396Z,1.90
2017-12-26T02:31:16.608Z,1.65
2017-12-26T02:33:43.183Z,1.98
2017-12-26T02:36:09.409Z,1.87
2017-12-26T02:38:35.624Z,1.73
2017-12-26T02:41:02.221Z,2.10
2017-12-26T02:43:28.457Z,1.90
2017-12-26T02:45:54.633Z,1.70
2017-12-26T02:48:21.273Z,1.73
2017-12-26T02:50:47.487Z,1.50
2017-12-26T02:53:13.698Z,2.03
2017-12-26T02:55:39.940Z,1.70
2017-12-26T02:58:06.364Z,1.83
2017-12-26T03:00:32.573Z,1.62
2017-12-26T03:02:58.876Z,1.90
2017-12-26T03:05:25.384Z,1.60
2017-12-26T03:07:51.599Z,1.60
2017-12-26T03:10:18.180Z,1.60
2017-12-26T03:12:44.357Z,1.70
2017-12-26T03:15:10.628Z,1.73
2017-12-26T03:17:36.869Z,1.73
2017-12-26T03:20:03.463Z,1.73
2017-12-26T03:22:29.627Z,2.00
2017-12-26T03:24:55.896Z,1.87
2017-12-26T03:27:22.113Z,1.90
2017-12-26T03:29:48.300Z,1.90
2017-12-26T03:32:14.528Z,1.80
2017-12-26T03:34:40.706Z,1.97
2017-12-26T03:37:06.916Z,1.97
2017-12-26T03:39:33.496Z,1.90
2017-12-26T03:41:59.697Z,1.98
2017-12-26T03:44:25.884Z,1.80
2017-12-26T03:46:52.126Z,2.15
2017-12-26T03:49:18.327Z,2.00
2017-12-26T03:51:44.552Z,1.87
2017-12-26T03:54:10.824Z,1.87
2017-12-26T03:56:37.009Z,1.90
2017-12-26T03:59:03.175Z,1.83
2017-12-26T04:01:29.800Z,2.25
2017-12-26T04:03:55.975Z,1.70
2017-12-26T04:06:22.143Z,1.73
2017-12-26T04:08:48.789Z,1.97
2017-12-26T04:11:14.983Z,1.60
2017-12-26T04:13:41.183Z,1.60
2017-12-26T04:16:07.783Z,1.67
2017-12-26T04:18:33.965Z,1.93
2017-12-26T04:21:00.140Z,1.90
2017-12-26T04:23:26.412Z,1.70
2017-12-26T04:25:52.644Z,1.90
2017-12-26T04:28:18.857Z,1.55
2017-12-26T04:30:45.116Z,2.07
2017-12-26T04:33:11.640Z,2.10
2017-12-26T04:35:37.853Z,1.53
2017-12-26T04:38:04.464Z,2.00
2017-12-26T04:40:30.649Z,1.87
2017-12-26T04:42:56.829Z,1.70
2017-12-26T04:45:23.076Z,1.70
2017-12-26T04:47:49.512Z,2.07
2017-12-26T04:50:15.709Z,1.80
2017-12-26T04:52:41.988Z,1.87
2017-12-26T04:55:08.210Z,2.10
2017-12-26T04:57:34.405Z,1.85
2017-12-26T05:00:01.186Z,1.95
2017-12-26T05:02:27.361Z,1.95
2017-12-26T05:04:53.581Z,1.73
2017-12-26T05:07:19.860Z,1.80
2017-12-26T05:09:46.045Z,1.90
2017-12-26T05:12:12.266Z,1.60
2017-12-26T05:14:38.643Z,1.80
2017-12-26T05:17:04.835Z,1.73
2017-12-26T05:19:31.073Z,2.00
2017-12-26T05:21:57.705Z,1.95
2017-12-26T05:24:23.933Z,2.00
2017-12-26T05:26:50.142Z,1.95
2017-12-26T05:29:16.423Z,2.40
2017-12-26T05:31:42.637Z,1.70
2017-12-26T05:34:08.860Z,2.00
2017-12-26T05:36:35.138Z,1.60
2017-12-26T05:39:01.310Z,1.90
2017-12-26T05:41:27.491Z,1.80
2017-12-26T05:43:54.042Z,2.10
2017-12-26T05:46:20.227Z,1.92
2017-12-26T05:48:46.676Z,1.60
2017-12-26T05:51:12.946Z,1.63
2017-12-26T05:53:39.164Z,2.05
2017-12-26T05:56:05.339Z,2.10
2017-12-26T05:58:31.925Z,1.62
2017-12-26T06:00:58.160Z,1.77
2017-12-26T06:03:24.349Z,1.80
2017-12-26T06:05:50.620Z,1.80
2017-12-26T06:08:17.033Z,1.90
2017-12-26T06:10:43.224Z,1.90
2017-12-26T06:13:09.496Z,1.80
2017-12-26T06:15:35.786Z,1.73
2017-12-26T06:18:02.002Z,1.73
2017-12-26T06:20:28.308Z,1.50
2017-12-26T06:22:54.503Z,1.80
2017-12-26T06:25:20.717Z,1.90
2017-12-26T06:27:46.972Z,1.67
2017-12-26T06:30:13.189Z,1.85
2017-12-26T06:32:39.380Z,1.60
2017-12-26T06:35:05.939Z,1.55
2017-12-26T06:37:32.392Z,1.40
2017-12-26T06:39:58.620Z,2.00
2017-12-26T06:42:24.899Z,1.85
2017-12-26T06:44:51.125Z,1.70
2017-12-26T06:47:17.331Z,1.50
2017-12-26T06:49:43.553Z,1.90
2017-12-26T06:52:09.788Z,2.00
2017-12-26T06:54:36.024Z,1.52
2017-12-26T06:57:02.235Z,1.80
2017-12-26T06:59:28.522Z,1.70
2017-12-26T07:01:54.749Z,1.92
2017-12-26T07:04:20.929Z,1.80
2017-12-26T07:06:47.188Z,2.12
2017-12-26T07:09:13.391Z,1.67
2017-12-26T07:11:39.598Z,2.00
2017-12-26T07:14:06.104Z,2.05
2017-12-26T07:16:32.557Z,1.80
2017-12-26T07:18:58.784Z,2.20
2017-12-26T07:21:30.931Z,2.17
2017-12-26T07:23:57.100Z,1.57
2017-12-26T07:26:23.340Z,1.90
2017-12-26T07:28:49.965Z,2.00
2017-12-26T07:31:16.190Z,2.53
2017-12-26T07:33:42.373Z,1.90
2017-12-26T07:36:08.628Z,2.10
2017-12-26T07:38:34.844Z,2.60
2017-12-26T07:41:01.065Z,2.50
2017-12-26T07:43:27.328Z,2.07
2017-12-26T07:45:53.570Z,2.50
2017-12-26T07:48:19.799Z,2.43
2017-12-26T07:50:46.057Z,2.40
2017-12-26T07:53:12.278Z,2.10
2017-12-26T07:55:38.484Z,2.37
2017-12-26T07:58:04.768Z,2.40
2017-12-26T08:00:30.995Z,2.62
2017-12-26T08:02:57.230Z,2.58
2017-12-26T08:05:23.521Z,2.40
2017-12-26T08:07:49.716Z,2.60
2017-12-26T08:10:15.936Z,2.12
2017-12-26T08:12:42.209Z,2.73
2017-12-26T08:15:08.454Z,2.35
2017-12-26T08:17:34.733Z,2.70
2017-12-26T08:20:01.341Z,2.40
2017-12-26T08:22:27.508Z,2.45
2017-12-26T08:24:53.751Z,2.62
2017-12-26T08:27:20.006Z,2.60
2017-12-26T08:29:46.225Z,2.60
2017-12-26T08:32:12.448Z,2.10
2017-12-26T08:34:38.736Z,2.30
2017-12-26T08:37:05.179Z,2.50
2017-12-26T08:39:31.408Z,2.55
2017-12-26T08:41:58.451Z,2.20
2017-12-26T08:44:24.701Z,2.70
2017-12-26T08:46:50.926Z,2.70
2017-12-26T08:49:17.190Z,2.37
2017-12-26T08:51:43.393Z,2.20
2017-12-26T08:54:09.594Z,2.67
2017-12-26T08:56:35.869Z,2.60
2017-12-26T08:59:02.062Z,2.55
2017-12-26T09:01:28.261Z,2.60
2017-12-26T09:03:54.556Z,2.35
2017-12-26T09:06:20.884Z,2.58
2017-12-26T09:08:47.086Z,2.40
2017-12-26T09:11:13.367Z,2.65
2017-12-26T09:13:39.566Z,2.60
2017-12-26T09:16:05.740Z,3.05
2017-12-26T09:18:32.377Z,2.40
2017-12-26T09:20:58.644Z,2.90
2017-12-26T09:23:24.854Z,2.50
2017-12-26T09:25:51.133Z,2.53
2017-12-26T09:28:17.359Z,2.30
2017-12-26T09:30:43.585Z,2.87
2017-12-26T09:33:09.870Z,3.10
2017-12-26T09:35:36.296Z,2.58
2017-12-26T09:38:02.514Z,2.60
2017-12-26T09:40:28.747Z,2.20
2017-12-26T09:42:54.970Z,2.72
2017-12-26T09:45:21.152Z,2.30
2017-12-26T09:47:47.837Z,2.77
2017-12-26T09:50:14.069Z,2.45
2017-12-26T09:52:40.289Z,2.70
2017-12-26T09:55:06.572Z,3.20
2017-12-26T09:57:32.762Z,2.33
2017-12-26T09:59:58.954Z,2.42
2017-12-26T10:02:25.221Z,3.15
2017-12-26T10:04:51.412Z,2.20
2017-12-26T10:07:17.864Z,2.50
2017-12-26T10:09:44.494Z,2.08
2017-12-26T10:12:10.701Z,1.97
2017-12-26T10:14:36.896Z,2.70
2017-12-26T10:17:03.478Z,2.17
2017-12-26T10:19:29.726Z,2.20
2017-12-26T10:21:55.925Z,2.03
2017-12-26T10:24:22.184Z,1.73
2017-12-26T10:26:49.272Z,1.80
2017-12-26T10:29:15.461Z,1.90
2017-12-26T10:31:41.711Z,2.10
2017-12-26T10:34:07.917Z,2.00
2017-12-26T10:36:34.120Z,2.00
2017-12-26T10:39:00.673Z,1.90
2017-12-26T10:41:26.881Z,2.03
2017-12-26T10:43:53.061Z,1.87
2017-12-26T10:46:19.306Z,1.97
2017-12-26T10:48:45.513Z,1.90
2017-12-26T10:51:11.704Z,1.53
2017-12-26T10:53:37.929Z,1.93
2017-12-26T10:56:04.157Z,1.93
2017-12-26T10:58:30.652Z,1.90
2017-12-26T11:00:56.857Z,2.07
2017-12-26T11:03:23.028Z,1.83
2017-12-26T11:05:49.647Z,1.77
2017-12-26T11:08:16.077Z,1.73
2017-12-26T11:10:42.274Z,2.00
2017-12-26T11:13:08.525Z,1.70
2017-12-26T11:15:35.024Z,1.80
2017-12-26T11:18:01.339Z,2.00
2017-12-26T11:20:27.635Z,1.77
2017-12-26T11:22:53.893Z,1.50
2017-12-26T11:25:21.053Z,1.77
2017-12-26T11:27:47.234Z,1.62
2017-12-26T11:30:13.673Z,1.80
2017-12-26T11:32:40.289Z,2.08
2017-12-26T11:35:06.528Z,1.75
2017-12-26T11:37:32.743Z,1.95
2017-12-26T11:39:59.005Z,1.62
2017-12-26T11:42:25.204Z,1.60
2017-12-26T11:44:51.393Z,1.65
2017-12-26T11:47:18.185Z,1.80
2017-12-26T11:49:44.373Z,1.70
2017-12-26T11:52:10.557Z,1.67
2017-12-26T11:54:36.878Z,1.73
2017-12-26T11:57:03.136Z,1.50
2017-12-26T11:59:29.322Z,1.30
2017-12-26T12:01:55.952Z,1.65
2017-12-26T12:04:22.180Z,1.60
2017-12-26T12:06:48.380Z,1.73
2017-12-26T12:09:14.641Z,1.30
2017-12-26T12:11:40.876Z,1.77
2017-12-26T12:14:07.101Z,1.60
2017-12-26T12:16:33.650Z,1.53
2017-12-26T12:18:59.882Z,1.67
2017-12-26T12:21:26.064Z,1.42
2017-12-26T12:23:52.328Z,1.40
2017-12-26T12:26:18.760Z,1.35
2017-12-26T12:28:45.016Z,1.30
2017-12-26T12:31:11.875Z,1.33
2017-12-26T12:33:38.081Z,1.73
2017-12-26T12:36:04.314Z,1.30
2017-12-26T12:38:30.893Z,1.00
2017-12-26T12:40:57.125Z,1.40
2017-12-26T12:43:23.349Z,1.43
2017-12-26T12:45:50.040Z,1.60
2017-12-26T12:48:16.229Z,1.37
2017-12-26T12:50:42.453Z,1.40
2017-12-26T12:53:08.740Z,1.75
2017-12-26T12:55:35.198Z,1.40
2017-12-26T12:58:01.388Z,1.55
2017-12-26T13:00:27.642Z,1.30
2017-12-26T13:02:54.080Z,1.48
2017-12-26T13:05:20.264Z,1.50
2017-12-26T13:07:46.926Z,1.50
2017-12-26T13:10:13.124Z,1.62
2017-12-26T13:12:39.314Z,1.10
2017-12-26T13:15:05.900Z,1.42
2017-12-26T13:17:32.086Z,1.20
2017-12-26T13:19:58.300Z,1.40
2017-12-26T13:22:25.132Z,1.20
2017-12-26T13:24:51.613Z,1.17
2017-12-26T13:27:17.831Z,1.17
2017-12-26T13:29:44.103Z,1.37
2017-12-26T13:32:10.320Z,1.67
2017-12-26T13:34:36.749Z,1.30
2017-12-26T13:37:03.413Z,1.50
2017-12-26T13:39:29.622Z,1.50
2017-12-26T13:41:56.045Z,1.65
2017-12-26T13:44:22.288Z,1.30
2017-12-26T13:46:48.484Z,1.50
2017-12-26T13:49:14.676Z,1.40
2017-12-26T13:51:40.918Z,1.50
2017-12-26T13:54:07.193Z,1.48
2017-12-26T13:56:33.398Z,1.60
2017-12-26T13:58:59.670Z,1.63
2017-12-26T14:01:25.850Z,1.30
2017-12-26T14:03:52.059Z,1.27
2017-12-26T14:06:18.337Z,1.50
2017-12-26T14:08:44.521Z,1.63
2017-12-26T14:11:10.729Z,1.50
2017-12-26T14:13:37.024Z,1.30
2017-12-26T14:16:03.218Z,1.50
2017-12-26T14:18:29.446Z,1.20
2017-12-26T14:20:55.733Z,1.70
2017-12-26T14:23:21.920Z,1.45
2017-12-26T14:25:48.180Z,1.17
2017-12-26T14:28:14.465Z,1.47
2017-12-26T14:30:40.732Z,1.60
2017-12-26T14:33:06.961Z,1.43
2017-12-26T14:35:33.237Z,1.10
2017-12-26T14:37:59.665Z,1.50
2017-12-26T14:40:25.920Z,1.63
2017-12-26T14:42:52.225Z,2.00
2017-12-26T14:45:18.476Z,2.12
2017-12-26T14:47:44.938Z,1.83
2017-12-26T14:50:11.561Z,1.30
2017-12-26T14:52:37.854Z,1.85
2017-12-26T14:55:04.169Z,1.60
2017-12-26T14:57:30.505Z,1.60
2017-12-26T14:59:56.780Z,1.60
2017-12-26T15:02:23.050Z,1.30
2017-12-26T15:04:49.697Z,1.47
2017-12-26T15:07:15.988Z,1.52
2017-12-26T15:09:42.245Z,1.40
2017-12-26T15:12:09.006Z,1.77
2017-12-26T15:14:35.257Z,1.45
2017-12-26T15:17:01.548Z,1.80
2017-12-26T15:19:28.007Z,1.83
2017-12-26T15:21:54.255Z,1.25
2017-12-26T15:24:20.569Z,1.40
2017-12-26T15:26:47.190Z,1.52
2017-12-26T15:29:13.465Z,1.48
2017-12-26T15:31:39.798Z,1.30
2017-12-26T15:34:06.129Z,1.47
2017-12-26T15:36:32.400Z,1.37
2017-12-26T15:38:58.678Z,1.77
2017-12-26T15:41:25.023Z,1.30
2017-12-26T15:43:51.323Z,1.30
2017-12-26T15:46:17.638Z,1.40
2017-12-26T15:48:44.070Z,1.37
2017-12-26T15:51:10.408Z,1.30
2017-12-26T15:53:36.924Z,1.27
2017-12-26T15:56:03.253Z,1.70
2017-12-26T15:58:29.543Z,1.65
2017-12-26T16:00:56.017Z,1.73
2017-12-26T16:03:22.351Z,1.55
2017-12-26T16:05:48.905Z,1.70
2017-12-26T16:08:15.179Z,1.60
2017-12-26T16:10:41.820Z,2.47
2017-12-26T16:13:08.093Z,1.40
2017-12-26T16:15:34.349Z,1.37
2017-12-26T16:18:00.699Z,1.40
2017-12-26T16:20:26.985Z,1.40
2017-12-26T16:22:53.276Z,1.30
2017-12-26T16:25:19.683Z,1.33
2017-12-26T16:27:45.973Z,1.42
2017-12-26T16:30:12.275Z,1.50
2017-12-26T16:32:38.577Z,1.70
2017-12-26T16:35:05.180Z,1.40
2017-12-26T16:37:31.527Z,1.40
2017-12-26T16:39:57.816Z,1.40
2017-12-26T16:42:24.069Z,1.50
2017-12-26T16:44:50.357Z,1.30
2017-12-26T16:47:16.644Z,1.80
2017-12-26T16:49:42.952Z,1.62
2017-12-26T16:52:09.244Z,1.45
2017-12-26T16:54:35.591Z,1.37
2017-12-26T16:57:01.849Z,1.45
2017-12-26T16:59:28.114Z,2.05
2017-12-26T17:01:54.569Z,1.70
2017-12-26T17:04:20.896Z,1.75
2017-12-26T17:06:47.181Z,1.40
2017-12-26T17:09:13.807Z,2.08
2017-12-26T17:11:40.095Z,1.35
2017-12-26T17:14:06.412Z,1.62
2017-12-26T17:16:32.750Z,1.50
2017-12-26T17:18:59.035Z,1.50
2017-12-26T17:21:25.310Z,2.30
2017-12-26T17:23:51.680Z,1.92
2017-12-26T17:26:18.000Z,1.60
2017-12-26T17:28:44.282Z,1.80
2017-12-26T17:31:10.891Z,1.58
2017-12-26T17:33:37.137Z,1.48
2017-12-26T17:36:03.396Z,1.60
2017-12-26T17:38:30.136Z,1.48
2017-12-26T17:40:56.372Z,1.73
2017-12-26T17:43:22.639Z,2.33
2017-12-26T17:45:48.968Z,1.60
2017-12-26T17:48:15.240Z,1.55
2017-12-26T17:50:41.542Z,1.50
2017-12-26T17:53:07.866Z,1.40
2017-12-26T17:55:34.138Z,1.35
2017-12-26T17:58:00.635Z,1.23
2017-12-26T18:00:26.932Z,1.50
2017-12-26T18:05:26.258Z,1.77
2017-12-26T18:07:52.574Z,1.52
2017-12-26T18:10:18.852Z,1.60
2017-12-26T18:12:45.180Z,1.50
2017-12-26T18:15:11.478Z,1.50
2017-12-26T18:17:37.723Z,1.50
2017-12-26T18:20:04.026Z,2.15
2017-12-26T18:22:30.308Z,1.95
2017-12-26T18:24:56.610Z,1.52
2017-12-26T18:27:22.952Z,1.42
2017-12-26T18:29:49.212Z,1.55
2017-12-26T18:32:15.499Z,1.65
2017-12-26T18:34:42.051Z,1.50
2017-12-26T18:37:08.311Z,1.35
2017-12-26T18:39:34.608Z,1.80
2017-12-26T18:42:00.919Z,1.60
2017-12-26T18:44:27.232Z,1.50
2017-12-26T18:46:53.493Z,1.50
2017-12-26T18:49:19.908Z,1.60
2017-12-26T18:51:46.387Z,2.15
2017-12-26T18:54:12.689Z,1.60
2017-12-26T18:56:39.014Z,1.75
2017-12-26T18:59:05.278Z,1.70
2017-12-26T19:01:31.514Z,1.50
2017-12-26T19:03:57.874Z,1.80
2017-12-26T19:06:24.143Z,1.58
2017-12-26T19:08:50.369Z,1.65
2017-12-26T19:11:16.698Z,1.83
2017-12-26T19:13:42.967Z,1.77
2017-12-26T19:16:09.253Z,1.62
2017-12-26T19:18:35.806Z,1.40
2017-12-26T19:21:02.307Z,1.60
2017-12-26T19:23:28.595Z,1.80
2017-12-26T19:25:54.938Z,1.95
2017-12-26T19:28:21.214Z,1.55
2017-12-26T19:30:47.484Z,1.75
2017-12-26T19:33:13.813Z,1.70
2017-12-26T19:35:40.078Z,1.70
2017-12-26T19:38:06.388Z,1.50
2017-12-26T19:40:32.787Z,1.70
2017-12-26T19:42:59.110Z,1.58
2017-12-26T19:45:25.426Z,1.80
2017-12-26T19:47:51.777Z,1.70
2017-12-26T19:50:18.073Z,1.90
2017-12-26T19:52:44.299Z,2.00
2017-12-26T19:55:10.633Z,1.65
2017-12-26T19:57:36.868Z,1.77
2017-12-26T20:00:03.201Z,2.00
2017-12-26T20:02:29.529Z,2.13
2017-12-26T20:04:55.772Z,1.52
2017-12-26T20:07:22.090Z,1.80
2017-12-26T20:09:48.470Z,1.80
2017-12-26T20:12:14.719Z,1.62
2017-12-26T20:14:41.029Z,1.73
2017-12-26T20:17:07.436Z,1.60
2017-12-26T20:19:33.810Z,1.62
2017-12-26T20:22:00.085Z,2.00
2017-12-26T20:24:26.393Z,1.30
2017-12-26T20:26:52.663Z,1.70
2017-12-26T20:29:20.185Z,1.77
2017-12-26T20:31:46.565Z,1.65
2017-12-26T20:34:12.859Z,1.70
2017-12-26T20:36:39.136Z,1.65
2017-12-26T20:39:05.498Z,1.75
2017-12-26T20:41:31.848Z,1.67
2017-12-26T20:43:58.182Z,1.60
2017-12-26T20:46:24.480Z,2.10
2017-12-26T20:48:50.790Z,1.90
2017-12-26T20:51:17.132Z,1.65
2017-12-26T20:53:43.664Z,1.35
2017-12-26T20:56:09.978Z,1.92
2017-12-26T20:58:36.252Z,1.55
2017-12-26T21:01:02.601Z,1.45
2017-12-26T21:03:28.919Z,1.90
2017-12-26T21:05:55.281Z,1.55
2017-12-26T21:08:21.614Z,1.80
2017-12-26T21:10:47.916Z,1.63
2017-12-26T21:13:14.255Z,1.60
2017-12-26T21:15:40.596Z,1.90
2017-12-26T21:18:07.217Z,1.87
2017-12-26T21:20:33.463Z,1.80
2017-12-26T21:22:59.807Z,1.80
2017-12-26T21:25:26.333Z,2.08
2017-12-26T21:27:52.584Z,1.50
2017-12-26T21:30:18.976Z,1.80
2017-12-26T21:32:45.533Z,1.67
2017-12-26T21:35:11.808Z,1.55
2017-12-26T21:37:38.149Z,1.83
2017-12-26T21:40:04.787Z,1.70
2017-12-26T21:42:31.110Z,1.80
2017-12-26T21:44:57.502Z,1.90
2017-12-26T21:47:23.693Z,1.60
2017-12-26T21:49:49.892Z,1.80
2017-12-26T21:52:16.135Z,1.85
2017-12-26T21:54:42.373Z,1.80
2017-12-26T21:57:08.839Z,1.90
2017-12-26T21:59:35.312Z,1.60
2017-12-26T22:02:01.507Z,1.73
2017-12-26T22:04:27.698Z,1.60
2017-12-26T22:06:53.935Z,1.60
2017-12-26T22:09:20.131Z,1.60
2017-12-26T22:11:46.346Z,1.75
2017-12-26T22:14:12.593Z,1.65
2017-12-26T22:16:38.812Z,1.70
2017-12-26T22:19:05.024Z,2.62
2017-12-26T22:21:31.324Z,1.85
2017-12-26T22:23:57.544Z,1.85
2017-12-26T22:26:23.706Z,1.90
2017-12-26T22:28:49.993Z,1.60
2017-12-26T22:31:16.228Z,2.00
2017-12-26T22:33:42.459Z,1.75
2017-12-26T22:36:08.704Z,1.80
2017-12-26T22:38:34.876Z,1.80
2017-12-26T22:41:01.073Z,1.60
2017-12-26T22:43:27.314Z,2.05
2017-12-26T22:45:53.522Z,2.00
2017-12-26T22:48:19.739Z,1.55
2017-12-26T22:50:46.220Z,1.45
2017-12-26T22:53:12.452Z,2.12
2017-12-26T22:55:38.725Z,1.48
2017-12-26T22:58:05.235Z,1.73
2017-12-26T23:00:31.693Z,1.67
2017-12-26T23:02:57.913Z,1.70
2017-12-26T23:05:24.155Z,1.60
2017-12-26T23:07:50.744Z,1.50
2017-12-26T23:10:16.925Z,1.65
2017-12-26T23:12:43.177Z,1.60
2017-12-26T23:15:15.671Z,1.73
2017-12-26T23:17:47.966Z,1.70
2017-12-26T23:20:20.319Z,1.45
2017-12-26T23:22:46.799Z,1.58
2017-12-26T23:25:19.023Z,1.42
2017-12-26T23:27:51.563Z,1.50
2017-12-26T23:30:23.772Z,1.42
2017-12-26T23:32:56.097Z,1.52
2017-12-26T23:38:32.643Z,1.23
2017-12-26T23:41:04.992Z,1.40
2017-12-26T23:43:37.310Z,1.60
2017-12-26T23:46:09.590Z,1.55
2017-12-26T23:48:41.792Z,1.70
2017-12-26T23:51:14.089Z,1.33
2017-12-26T23:53:46.297Z,1.90
2017-12-26T23:56:18.640Z,1.37
2017-12-26T23:58:51.088Z,1.27
